Time;durP1;ratioP1;P1;durP2;ratioP2;P2;SDS_P1;SDS_P2;PMS_P1;PMS_P2;Temp;Humidity;BMP_temperature;BMP_pressure;BME280_temperature;BME280_humidity;BME280_pressure;Samples;Min_cycle;Max_cycle;Signal;HPM_P1;HPM_P2
2022/06/08 00:00:33;;;;;;;28.05;19.02;;;;;;;17.48;100.00;98023.09;4822186;29;20042;-86
2022/06/08 00:03:23;;;;;;;29.40;18.88;;;;;;;17.54;100.00;98004.25;4794897;29;20050;-88
2022/06/08 00:05:49;;;;;;;25.83;18.38;;;;;;;17.56;100.00;98015.38;4795134;29;20211;-86
2022/06/08 00:08:14;;;;;;;30.45;20.98;;;;;;;17.44;100.00;98003.47;4794687;29;20153;-89
2022/06/08 00:10:40;;;;;;;34.15;21.33;;;;;;;17.41;100.00;98010.06;4794722;29;20045;-85
2022/06/08 00:13:06;;;;;;;30.30;21.60;;;;;;;17.45;100.00;98008.47;4825874;29;20053;-90
2022/06/08 00:15:32;;;;;;;32.50;20.83;;;;;;;17.44;100.00;97998.94;4824822;29;20046;-88
2022/06/08 00:17:58;;;;;;;27.13;19.83;;;;;;;17.33;100.00;97997.34;4809710;29;20458;-88
2022/06/08 00:20:24;;;;;;;28.73;20.83;;;;;;;17.38;100.00;97994.69;4785258;29;20066;-86
2022/06/08 00:22:50;;;;;;;24.75;19.65;;;;;;;17.28;100.00;97985.66;4792539;29;20041;-89
2022/06/08 00:25:16;;;;;;;28.83;20.80;;;;;;;17.23;100.00;97983.00;4774483;30;20043;-87
2022/06/08 00:27:42;;;;;;;27.85;19.73;;;;;;;17.24;100.00;97976.66;4773327;30;20122;-86
2022/06/08 00:30:09;;;;;;;27.13;20.45;;;;;;;17.30;100.00;97987.28;4773652;30;20039;-87
2022/06/08 00:32:36;;;;;;;27.00;20.05;;;;;;;17.34;100.00;97986.47;4799159;29;20034;-88
2022/06/08 00:35:03;;;;;;;24.98;19.48;;;;;;;17.33;100.00;97970.84;4809482;29;20085;-87
2022/06/08 00:37:29;;;;;;;27.45;19.33;;;;;;;17.42;100.00;97970.03;4809323;29;20073;-87
2022/06/08 00:39:55;;;;;;;30.27;21.15;;;;;;;17.25;100.00;97959.66;4783226;30;20043;-87
2022/06/08 00:42:22;;;;;;;30.85;21.55;;;;;;;17.25;100.00;97953.59;4789150;29;20200;-87
2022/06/08 00:44:51;;;;;;;30.25;19.58;;;;;;;17.25;100.00;97953.59;4773336;30;20054;-87
2022/06/08 00:47:20;;;;;;;30.73;21.98;;;;;;;17.20;100.00;97956.25;4789668;29;20039;-86
2022/06/08 00:49:59;;;;;;;32.75;21.88;;;;;;;17.31;100.00;97947.22;4788773;30;20054;-87
2022/06/08 00:52:26;;;;;;;32.10;22.25;;;;;;;17.26;100.00;97940.03;4789119;30;20043;-86
2022/06/08 00:55:07;;;;;;;35.08;22.83;;;;;;;17.26;100.00;97931.31;4773730;30;20126;-89
2022/06/08 00:57:38;;;;;;;30.63;22.20;;;;;;;17.25;100.00;97938.47;4773340;30;20058;-87
2022/06/08 01:00:20;;;;;;;38.10;23.27;;;;;;;17.35;100.00;97937.66;4787982;30;20130;-87
2022/06/08 01:02:46;;;;;;;34.33;22.63;;;;;;;17.23;100.00;97923.88;4788735;30;20039;-86
2022/06/08 01:05:23;;;;;;;35.88;24.65;;;;;;;17.32;100.00;97922.28;4788916;30;20568;-88
2022/06/08 01:07:53;;;;;;;35.40;23.77;;;;;;;17.33;100.00;97917.78;4773499;30;20039;-87
2022/06/08 01:10:23;;;;;;;43.85;26.17;;;;;;;17.36;100.00;97912.72;4787811;30;20067;-85
2022/06/08 01:12:49;;;;;;;35.47;23.88;;;;;;;17.36;100.00;97922.56;4773132;30;20042;-88
2022/06/08 01:15:19;;;;;;;36.05;24.52;;;;;;;17.36;100.00;97910.06;4783840;29;20051;-85
2022/06/08 01:17:44;;;;;;;39.00;24.55;;;;;;;17.30;100.00;97899.75;4805891;29;20035;-88
2022/06/08 01:20:11;;;;;;;41.45;23.70;;;;;;;17.30;100.00;97891.81;4790492;29;20039;-85
2022/06/08 01:22:38;;;;;;;40.45;24.08;;;;;;;17.38;100.00;97897.34;4806636;29;20494;-86
2022/06/08 01:25:07;;;;;;;38.13;25.45;;;;;;;17.35;100.00;97897.09;4806235;29;20043;-88
2022/06/08 01:27:51;;;;;;;39.72;24.08;;;;;;;17.46;100.00;97890.69;4807196;29;20122;-86
2022/06/08 01:30:49;;;;;;;38.38;26.15;;;;;;;17.41;100.00;97875.59;4791380;29;20129;-86
2022/06/08 01:33:26;;;;;;;39.58;26.98;;;;;;;17.33;100.00;97878.78;4806017;29;20038;-88
2022/06/08 01:36:27;;;;;;;40.97;25.95;;;;;;;17.35;100.00;97868.69;4806691;29;20091;-86
2022/06/08 01:39:03;;;;;;;36.15;24.38;;;;;;;17.40;100.00;97866.06;4805867;29;20489;-86
2022/06/08 01:41:44;;;;;;;38.00;25.85;;;;;;;17.35;100.00;97852.00;4806046;29;20035;-91
2022/06/08 01:44:40;;;;;;;36.90;24.98;;;;;;;17.36;100.00;97840.34;4806387;29;20045;-87
2022/06/08 01:47:31;;;;;;;36.95;24.88;;;;;;;17.24;100.00;97836.09;4805739;29;20046;-86
2022/06/08 01:50:09;;;;;;;36.63;24.15;;;;;;;17.22;100.00;97811.72;4806319;29;20058;-86
2022/06/08 01:52:57;;;;;;;33.72;22.60;;;;;;;17.33;100.00;97817.78;4805897;29;20047;-86
2022/06/08 01:55:25;;;;;;;33.80;22.73;;;;;;;17.31;100.00;97819.91;4806100;29;20076;-87
2022/06/08 01:58:30;;;;;;;35.78;23.58;;;;;;;17.36;100.00;97819.13;4805702;29;20039;-86
2022/06/08 02:01:13;;;;;;;40.13;23.50;;;;;;;17.19;100.00;97817.56;4805853;29;20046;-87
2022/06/08 02:04:02;;;;;;;35.00;23.27;;;;;;;17.26;100.00;97812.75;4805183;29;20050;-86
2022/06/08 02:06:47;;;;;;;34.90;22.85;;;;;;;17.28;100.00;97796.59;4804847;29;20054;-87
2022/06/08 02:09:20;;;;;;;32.03;22.33;;;;;;;17.24;100.00;97809.59;4806469;29;20035;-87
2022/06/08 02:12:01;;;;;;;33.53;22.55;;;;;;;17.26;100.00;97812.75;4806453;29;20035;-87
2022/06/08 02:14:36;;;;;;;27.27;19.88;;;;;;;17.33;100.00;97809.06;4810668;29;20051;-85
2022/06/08 02:17:13;;;;;;;34.78;22.23;;;;;;;17.32;100.00;97815.41;4824445;29;20125;-86
2022/06/08 02:19:47;;;;;;;26.98;20.05;;;;;;;17.26;100.00;97812.75;4807978;29;20036;-87
2022/06/08 02:22:23;;;;;;;36.45;21.85;;;;;;;17.23;100.00;97818.59;4824306;29;20049;-89
2022/06/08 02:24:54;;;;;;;32.75;20.83;;;;;;;17.32;100.00;97810.91;4823486;29;20486;-86
2022/06/08 02:27:31;;;;;;;27.95;21.05;;;;;;;17.32;100.00;97807.47;4824453;29;20477;-87
2022/06/08 02:30:11;;;;;;;28.58;19.42;;;;;;;17.36;100.00;97797.91;4819980;29;20049;-85
2022/06/08 02:35:53;;;;;;;32.17;18.50;;;;;;;17.17;100.00;97792.34;4806082;29;20406;-87
2022/06/08 02:38:24;;;;;;;26.25;18.67;;;;;;;17.19;100.00;97780.44;4774680;29;20039;-86
2022/06/08 02:40:57;;;;;;;24.42;19.33;;;;;;;17.28;100.00;97776.16;4805923;29;20164;-89
2022/06/08 02:43:27;;;;;;;;;;;;;;;17.33;100.00;97779.88;4775140;29;20099;-89
2022/06/08 02:46:10;;;;;;;24.83;19.13;;;;;;;17.19;100.00;97771.66;4819859;29;20288;-87
2022/06/08 02:48:36;;;;;;;23.48;16.85;;;;;;;17.26;100.00;97780.16;4789884;29;20062;-88
2022/06/08 02:51:04;;;;;;;24.45;16.13;;;;;;;17.16;100.00;97764.25;4805814;29;20525;-87
2022/06/08 02:53:30;;;;;;;25.88;17.25;;;;;;;17.11;100.00;97773.03;4805628;29;20041;-86
2022/06/08 02:56:06;;;;;;;22.10;14.98;;;;;;;17.13;100.00;97758.44;4822835;29;20049;-87
2022/06/08 02:58:42;;;;;;;19.80;13.75;;;;;;;17.13;100.00;97757.66;4807532;29;20042;-86
2022/06/08 03:01:16;;;;;;;15.43;12.95;;;;;;;17.06;100.00;97759.78;4823960;29;20039;-87
2022/06/08 03:03:48;;;;;;;17.08;11.10;;;;;;;17.10;100.00;97755.53;4807960;29;20064;-88
2022/06/08 03:06:19;;;;;;;16.45;11.27;;;;;;;17.04;100.00;97752.09;4824918;29;20418;-86
2022/06/08 03:08:52;;;;;;;12.90;10.05;;;;;;;17.11;100.00;97747.31;4826734;29;20414;-86
2022/06/08 03:11:20;;;;;;;11.77;9.73;;;;;;;17.04;100.00;97752.09;4811001;29;20038;-88
2022/06/08 03:13:54;;;;;;;12.73;8.98;;;;;;;17.12;100.00;97750.75;4811552;29;20034;-87
2022/06/08 03:16:41;;;;;;;11.93;9.05;;;;;;;17.05;100.00;97742.28;4810838;29;20042;-86
2022/06/08 03:19:08;;;;;;;13.15;9.25;;;;;;;16.95;100.00;97733.28;4811456;29;20039;-86
2022/06/08 03:21:35;;;;;;;12.40;9.00;;;;;;;17.08;100.00;97742.53;4828230;29;20042;-87
2022/06/08 03:24:01;;;;;;;14.07;9.82;;;;;;;17.03;100.00;97731.16;4796686;29;20083;-88
2022/06/08 03:26:35;;;;;;;12.07;9.93;;;;;;;17.05;100.00;97731.69;4827055;29;20489;-87
2022/06/08 03:29:00;;;;;;;12.63;9.75;;;;;;;16.95;100.00;97733.28;4793131;29;20070;-85
2022/06/08 03:31:26;;;;;;;11.75;9.55;;;;;;;16.95;100.00;97725.31;4809606;29;20046;-88
2022/06/08 03:33:52;;;;;;;10.88;9.20;;;;;;;16.92;100.00;97715.25;4795202;29;20039;-88
2022/06/08 03:36:17;;;;;;;11.68;9.30;;;;;;;16.98;100.00;97722.16;4809670;29;20047;-86
2022/06/08 03:38:43;;;;;;;12.68;9.57;;;;;;;16.96;100.00;97739.34;4809342;29;20046;-88
2022/06/08 03:41:10;;;;;;;14.13;9.48;;;;;;;16.92;100.00;97723.22;4810812;29;20062;-87
2022/06/08 03:43:36;;;;;;;11.10;9.35;;;;;;;16.98;100.00;97731.94;4829174;29;20532;-89
2022/06/08 03:46:04;;;;;;;13.98;9.68;;;;;;;16.96;100.00;97713.66;4812793;29;20042;-88
2022/06/08 03:48:31;;;;;;;12.32;9.60;;;;;;;16.93;100.00;97711.53;4798139;29;20517;-88
2022/06/08 03:50:59;;;;;;;14.15;9.93;;;;;;;17.05;100.00;97732.47;4797880;29;20034;-87
2022/06/08 03:53:32;;;;;;;11.95;8.80;;;;;;;16.99;100.00;97712.34;4812263;29;20046;-86
2022/06/08 03:56:02;;;;;;;10.45;8.57;;;;;;;17.03;100.00;97712.59;4811175;29;20036;-88
2022/06/08 03:58:28;;;;;;;10.45;8.90;;;;;;;17.08;100.00;97723.19;4827697;29;20042;-88
2022/06/08 04:00:54;;;;;;;10.10;8.23;;;;;;;16.97;100.00;97704.63;4812209;29;20048;-88
2022/06/08 04:03:20;;;;;;;11.00;8.30;;;;;;;16.96;100.00;97711.00;4816792;29;20049;-89
2022/06/08 04:05:46;;;;;;;11.73;8.90;;;;;;;17.03;100.00;97716.06;4833252;29;20069;-88
2022/06/08 04:08:12;;;;;;;10.15;8.20;;;;;;;16.99;100.00;97702.53;4802518;29;20049;-89
2022/06/08 04:10:38;;;;;;;10.93;7.72;;;;;;;16.97;100.00;97702.00;4797937;29;20039;-88
2022/06/08 04:13:03;;;;;;;9.43;7.30;;;;;;;17.13;100.00;97704.63;4811663;29;20141;-88
2022/06/08 04:15:44;;;;;;;8.60;6.80;;;;;;;17.19;100.00;97710.69;4792004;29;20471;-87
2022/06/08 04:18:17;;;;;;;8.27;6.32;;;;;;;17.22;100.00;97712.81;4791013;29;20084;-86
2022/06/08 04:20:45;;;;;;;7.47;6.67;;;;;;;17.25;100.00;97713.06;4807994;29;20061;-86
2022/06/08 04:23:12;;;;;;;7.15;6.45;;;;;;;17.26;100.00;97706.69;4807906;29;20062;-86
2022/06/08 04:25:40;;;;;;;7.45;6.18;;;;;;;17.28;100.00;97709.84;4807722;29;20402;-86
2022/06/08 04:28:06;;;;;;;7.43;6.47;;;;;;;17.13;100.00;97691.38;4806645;29;20054;-88
2022/06/08 04:30:33;;;;;;;8.40;6.25;;;;;;;17.26;100.00;97697.94;4807417;29;20489;-86
2022/06/08 04:32:58;;;;;;;6.95;6.25;;;;;;;17.21;100.00;97685.50;4806375;29;20049;-87
2022/06/08 04:35:25;;;;;;;7.75;5.93;;;;;;;17.21;100.00;97690.03;4806817;29;20386;-87
2022/06/08 04:37:52;;;;;;;10.30;6.10;;;;;;;17.14;100.00;97695.59;4807685;29;20447;-87
2022/06/08 04:40:20;;;;;;;10.07;6.30;;;;;;;17.22;100.00;97702.22;4807414;29;20406;-86
2022/06/08 04:42:46;;;;;;;8.40;6.45;;;;;;;17.24;100.00;97702.72;4811321;29;20041;-86
2022/06/08 04:45:12;;;;;;;9.60;6.35;;;;;;;17.34;100.00;97701.91;4809464;29;20418;-87
2022/06/08 04:47:38;;;;;;;8.35;6.78;;;;;;;17.42;100.00;97701.31;4825364;29;20379;-85
2022/06/08 04:50:05;;;;;;;8.07;6.43;;;;;;;17.44;100.00;97706.38;4825476;29;20030;-86
2022/06/08 04:52:31;;;;;;;7.10;6.28;;;;;;;17.45;100.00;97703.44;4825408;29;20034;-88
2022/06/08 04:54:58;;;;;;;7.00;6.13;;;;;;;17.50;100.00;97699.97;4794023;29;20534;-86
2022/06/08 04:57:24;;;;;;;8.90;6.60;;;;;;;17.50;100.00;97702.63;4825466;29;20035;-88
2022/06/08 04:59:50;;;;;;;7.75;6.07;;;;;;;17.64;100.00;97695.66;4825393;29;20121;-85
2022/06/08 05:02:42;;;;;;;7.03;6.32;;;;;;;17.80;100.00;97699.00;4809129;29;20069;-87
2022/06/08 05:05:04;;;;;;;6.28;5.57;;;;;;;17.91;100.00;97693.63;4824782;29;20087;-86
2022/06/08 05:07:30;;;;;;;8.32;5.40;;;;;;;17.91;100.00;97693.63;4805926;29;20043;-87
2022/06/08 05:09:56;;;;;;;7.50;5.75;;;;;;;17.73;100.00;97697.72;4808521;29;20087;-87
2022/06/08 05:12:21;;;;;;;5.68;5.18;;;;;;;17.76;100.00;97687.34;4805357;29;20046;-88
2022/06/08 05:14:48;;;;;;;5.43;4.78;;;;;;;17.82;100.00;97686.25;4801008;29;20061;-88
2022/06/08 05:17:14;;;;;;;5.47;4.72;;;;;;;17.84;100.00;97676.16;4806637;29;20043;-88
2022/06/08 05:19:39;;;;;;;5.20;4.63;;;;;;;18.02;100.00;97681.13;4806536;29;20069;-87
2022/06/08 05:22:05;;;;;;;7.28;5.13;;;;;;;18.12;100.00;97676.53;4790709;29;20096;-89
2022/06/08 05:24:30;;;;;;;5.35;4.85;;;;;;;18.11;100.00;97690.06;4806530;29;20031;-86
2022/06/08 05:26:56;;;;;;;6.03;5.45;;;;;;;17.92;100.00;97687.25;4775776;29;20486;-89
2022/06/08 05:29:23;;;;;;;7.00;5.68;;;;;;;18.14;100.00;97676.22;4789346;29;20034;-91
2022/06/08 05:31:48;;;;;;;6.03;5.43;;;;;;;18.18;100.00;97687.09;4774017;29;20038;-88
2022/06/08 05:34:14;;;;;;;6.32;5.72;;;;;;;18.03;100.00;97683.47;4774328;29;20374;-89
2022/06/08 05:36:42;;;;;;;8.05;6.30;;;;;;;17.99;100.00;97685.06;4803366;29;20046;-89
2022/06/08 05:39:08;;;;;;;6.63;5.90;;;;;;;18.31;100.00;97683.81;4774319;29;20038;-89
2022/06/08 05:41:34;;;;;;;8.00;7.20;;;;;;;18.33;100.00;97683.50;4773834;29;20031;-89
2022/06/08 05:44:00;;;;;;;6.85;6.25;;;;;;;18.44;100.00;97681.56;4788463;29;20035;-88
2022/06/08 05:46:26;;;;;;;7.95;7.25;;;;;;;18.62;100.00;97680.09;4773257;29;20030;-90
2022/06/08 05:48:52;;;;;;;9.25;6.78;;;;;;;18.57;100.00;97686.22;4787073;29;20043;-87
2022/06/08 05:51:17;;;;;;;7.90;7.10;;;;;;;18.33;100.00;97684.31;4805407;29;20447;-86
2022/06/08 05:53:45;;;;;;;9.73;8.73;;;;;;;18.60;100.00;97688.31;4787018;29;20035;-85
2022/06/08 05:56:11;;;;;;;8.95;8.02;;;;;;;18.63;100.00;97687.75;4803712;29;20046;-85
2022/06/08 05:58:37;;;;;;;8.80;8.00;;;;;;;18.72;100.00;97684.50;4805269;29;20039;-90
2022/06/08 06:01:03;;;;;;;11.77;7.93;;;;;;;18.79;100.00;97687.63;4806847;29;20410;-90
2022/06/08 06:03:29;;;;;;;7.57;5.60;;;;;;;18.62;100.00;97686.16;4786637;29;20095;-84
2022/06/08 06:05:56;;;;;;;6.20;5.25;;;;;;;18.76;100.00;97685.53;4772882;29;20049;-86
2022/06/08 06:08:23;;;;;;;7.70;5.22;;;;;;;18.90;100.00;97680.31;4803371;29;20117;-92
2022/06/08 06:10:49;;;;;;;6.05;5.03;;;;;;;18.47;100.00;97686.31;4775589;29;20150;-91
2022/06/08 06:13:15;;;;;;;6.25;4.53;;;;;;;18.82;100.00;97679.06;4791080;29;20042;-88
2022/06/08 06:15:41;;;;;;;5.30;4.70;;;;;;;19.05;100.00;97672.22;4802630;29;20184;-87
2022/06/08 06:18:07;;;;;;;7.93;4.28;;;;;;;18.86;100.00;97679.31;4823202;29;20051;-87
2022/06/08 06:20:33;;;;;;;5.80;4.28;;;;;;;19.03;100.00;97684.19;4806737;29;20389;-84
2022/06/08 06:22:59;;;;;;;5.07;3.92;;;;;;;18.70;100.00;97680.25;4823410;29;20390;-85
2022/06/08 06:25:25;;;;;;;4.25;3.50;;;;;;;18.28;100.00;97679.06;4821897;29;20073;-86
2022/06/08 06:27:50;;;;;;;4.30;3.60;;;;;;;18.29;100.00;97687.81;4823800;29;20489;-85
2022/06/08 06:30:17;;;;;;;4.25;3.20;;;;;;;18.15;100.00;97682.34;4823247;29;20422;-88
2022/06/08 06:32:44;;;;;;;4.45;3.42;;;;;;;18.04;100.00;97687.72;4805198;29;20497;-84
2022/06/08 06:35:26;;;;;;;5.25;3.10;;;;;;;17.81;100.00;97679.34;4792015;29;20401;-84
2022/06/08 06:37:52;;;;;;;3.40;2.83;;;;;;;17.91;100.00;97683.81;4788296;29;20050;-86
2022/06/08 06:40:18;;;;;;;3.22;2.50;;;;;;;18.07;100.00;97686.38;4805819;29;20042;-83
2022/06/08 06:42:45;;;;;;;3.22;2.72;;;;;;;18.05;100.00;97677.91;4808148;29;20092;-85
2022/06/08 06:45:11;;;;;;;2.83;2.60;;;;;;;18.54;100.00;97678.81;4808641;29;20078;-85
2022/06/08 06:47:37;;;;;;;5.30;2.90;;;;;;;18.76;100.00;97677.53;4808664;29;20053;-84
2022/06/08 06:50:05;;;;;;;2.33;2.13;;;;;;;18.29;100.00;97679.84;4825501;29;20038;-84
2022/06/08 06:52:32;;;;;;;2.83;2.40;;;;;;;18.67;100.00;97688.81;4824654;29;20106;-83
2022/06/08 06:54:58;;;;;;;2.88;2.10;;;;;;;19.33;100.00;97687.56;4808498;29;20542;-83
2022/06/08 06:57:24;;;;;;;4.43;2.38;;;;;;;19.46;100.00;97686.88;4824663;29;20038;-83
2022/06/08 06:59:50;;;;;;;17.50;2.70;;;;;;;19.64;100.00;97687.16;4807795;29;20030;-87
2022/06/08 07:02:21;;;;;;;3.15;2.08;;;;;;;20.05;100.00;97681.28;4808221;29;20134;-81
2022/06/08 07:04:48;;;;;;;5.10;2.00;;;;;;;20.27;100.00;97685.22;4826113;29;20034;-87
2022/06/08 07:07:14;;;;;;;4.57;2.00;;;;;;;20.01;100.00;97685.59;4792582;29;20073;-86
2022/06/08 07:09:40;;;;;;;1.92;1.63;;;;;;;19.80;100.00;97690.41;4807820;29;20070;-85
2022/06/08 07:12:07;;;;;;;3.25;1.70;;;;;;;19.16;100.00;97688.84;4792744;29;20088;-87
2022/06/08 07:14:34;;;;;;;1.70;1.42;;;;;;;19.08;100.00;97690.25;4810079;29;20486;-84
2022/06/08 07:17:00;;;;;;;2.15;1.42;;;;;;;18.66;100.00;97697.03;4794230;29;20038;-84
2022/06/08 07:19:25;;;;;;;2.50;1.50;;;;;;;18.40;100.00;97690.09;4826011;29;20551;-83
2022/06/08 07:21:51;;;;;;;5.70;1.55;;;;;;;18.83;100.00;97691.28;4809135;29;20097;-89
2022/06/08 07:24:23;;;;;;;2.85;1.50;;;;;;;19.01;100.00;97694.31;4828197;29;20042;-88
2022/06/08 07:26:49;;;;;;;3.63;1.50;;;;;;;18.98;100.00;97695.66;4814354;29;20046;-89
2022/06/08 07:29:16;;;;;;;5.32;1.70;;;;;;;18.65;100.00;97696.25;4828269;29;20031;-90
2022/06/08 07:31:42;;;;;;;2.15;1.60;;;;;;;18.82;100.00;97693.16;4800351;29;20160;-90
2022/06/08 07:34:11;;;;;;;3.45;1.30;;;;;;;17.72;100.00;97702.25;4800742;29;20034;-91
2022/06/08 07:36:37;;;;;;;2.13;1.10;;;;;;;17.72;100.00;97696.94;4803822;29;20038;-89
2022/06/08 07:39:03;;;;;;;2.33;1.05;;;;;;;17.95;100.00;97702.63;4803036;29;20046;-90
2022/06/08 07:41:29;;;;;;;3.35;1.30;;;;;;;18.40;100.00;97710.56;4800562;29;20039;-90
2022/06/08 07:43:55;;;;;;;2.20;1.23;;;;;;;18.44;100.00;97697.50;4799869;29;20050;-91
2022/06/08 07:46:20;;;;;;;1.10;0.90;;;;;;;18.55;100.00;97688.38;4800153;29;20046;-91
2022/06/08 07:51:32;;;;;;;1.75;1.10;;;;;;;18.34;100.00;97695.72;4815874;29;20031;-90
2022/06/08 07:54:00;;;;;;;2.42;0.90;;;;;;;18.53;100.00;97701.94;4799289;29;20042;-90
2022/06/08 07:56:26;;;;;;;1.38;0.82;;;;;;;18.84;100.00;97700.84;4800315;29;20046;-90
2022/06/08 08:02:59;;;;;;;2.25;0.70;;;;;;;19.58;100.00;97693.63;4826527;29;20073;-89
2022/06/08 08:05:25;;;;;;;1.65;0.80;;;;;;;19.49;100.00;97698.81;4808423;29;20038;-85
2022/06/08 08:07:51;;;;;;;2.08;0.90;;;;;;;19.55;100.00;97695.78;4804988;29;20582;-84
2022/06/08 08:10:22;;;;;;;1.33;0.70;;;;;;;19.85;100.00;97698.31;4806553;29;20371;-84
2022/06/08 08:12:48;;;;;;;2.28;0.70;;;;;;;19.93;100.00;97700.34;4823005;29;20042;-83
2022/06/08 08:15:16;;;;;;;2.05;0.80;;;;;;;19.34;100.00;97697.13;4806122;29;20074;-83
2022/06/08 08:17:41;;;;;;;11.07;1.20;;;;;;;18.64;100.00;97689.34;4806255;29;20031;-83
2022/06/08 08:20:11;;;;;;;2.67;0.85;;;;;;;19.11;100.00;97691.56;4823699;29;20061;-83
2022/06/08 08:22:37;;;;;;;1.23;0.80;;;;;;;19.38;100.00;97679.53;4822646;29;20082;-87
2022/06/08 08:25:03;;;;;;;0.65;0.60;;;;;;;19.57;100.00;97674.22;4823303;29;20034;-87
2022/06/08 08:27:29;;;;;;;0.95;0.70;;;;;;;19.27;100.00;97685.00;4791654;29;20030;-88
2022/06/08 08:29:54;;;;;;;1.50;0.75;;;;;;;18.76;100.00;97670.34;4822018;29;20045;-87
2022/06/08 08:36:11;;;;;;;1.45;0.80;;;;;;;17.96;100.00;97673.13;4825786;29;20034;-85
2022/06/08 08:38:38;;;;;;;2.25;0.80;;;;;;;18.11;100.00;97669.63;4809388;29;20060;-86
2022/06/08 08:41:04;;;;;;;0.80;0.70;;;;;;;18.44;100.00;97686.88;4809588;29;20031;-85
2022/06/08 08:47:54;;;;;;;1.42;0.70;;;;;;;19.87;100.00;97696.16;4826134;29;20139;-85
2022/06/08 08:50:44;;;;;;;1.85;0.80;;;;;;;20.28;100.00;97697.44;4825621;29;20459;-83
2022/06/08 08:53:09;;;;;;;1.27;0.80;;;;;;;20.65;100.00;97698.41;4824734;29;20050;-85
2022/06/08 08:55:49;;;;;;;2.97;0.98;;;;;;;19.54;100.00;97704.84;4825547;29;20478;-83
2022/06/08 08:58:18;;;;;;;1.30;0.90;;;;;;;19.75;100.00;97691.28;4825105;29;20043;-84
2022/06/08 09:00:54;;;;;;;2.47;0.95;;;;;;;19.50;100.00;97693.22;4825456;29;20066;-83
2022/06/08 09:03:25;;;;;;;2.10;0.80;;;;;;;19.88;100.00;97691.63;4825256;29;20038;-84
2022/06/08 09:05:54;;;;;;;4.20;1.00;;;;;;;19.38;100.00;97690.16;4809272;29;20558;-84
2022/06/08 09:08:22;;;;;;;3.22;0.85;;;;;;;20.19;100.00;97697.31;4793817;29;20046;-84
2022/06/08 09:10:48;;;;;;;3.17;0.98;;;;;;;19.66;100.00;97679.69;4809151;29;20039;-83
2022/06/08 09:13:29;;;;;;;2.00;1.05;;;;;;;20.25;100.00;97687.38;4809062;29;20502;-83
2022/06/08 09:15:57;;;;;;;2.80;1.17;;;;;;;19.53;100.00;97692.63;4808964;29;20146;-83
2022/06/08 09:18:40;;;;;;;1.13;0.90;;;;;;;20.42;100.00;97700.16;4825598;29;20035;-84
2022/06/08 09:21:27;;;;;;;3.47;1.83;;;;;;;20.28;100.00;97705.44;4809018;29;20053;-85
2022/06/08 09:24:06;;;;;;;1.40;1.27;;;;;;;20.27;100.00;97698.53;4793754;29;20046;-83
2022/06/08 09:26:34;;;;;;;2.53;1.40;;;;;;;20.37;100.00;97700.22;4825474;29;20474;-84
2022/06/08 09:29:07;;;;;;;3.08;1.13;;;;;;;20.47;100.00;97696.59;4808695;29;20060;-86
2022/06/08 09:31:35;;;;;;;1.95;1.13;;;;;;;20.48;100.00;97708.84;4808862;29;20162;-83
2022/06/08 09:34:38;;;;;;;1.75;1.05;;;;;;;21.12;100.00;97702.91;4825156;29;20038;-85
2022/06/08 09:37:24;;;;;;;3.35;1.20;;;;;;;21.81;100.00;97687.91;4769448;29;20453;-84
2022/06/08 09:40:36;;;;;;;1.00;0.90;;;;;;;21.64;100.00;97701.88;4824971;29;20038;-84
2022/06/08 09:43:19;;;;;;;1.20;1.00;;;;;;;21.02;99.95;97700.44;4808188;29;20046;-84
2022/06/08 09:46:00;;;;;;;2.35;1.10;;;;;;;21.36;100.00;97699.22;4824977;29;20494;-84
2022/06/08 09:52:27;;;;;;;2.53;1.10;;;;;;;22.02;99.43;97706.94;4804382;29;20050;-86
2022/06/08 09:55:05;;;;;;;1.58;1.00;;;;;;;22.10;99.02;97700.84;4793821;29;20060;-84
2022/06/08 09:57:50;;;;;;;1.15;1.08;;;;;;;21.34;98.69;97704.09;4808511;29;20051;-85
2022/06/08 10:01:03;;;;;;;8.10;1.20;;;;;;;22.45;99.69;97694.16;4826017;29;20046;-87
2022/06/08 10:08:11;;;;;;;1.40;1.20;;;;;;;21.99;96.55;97718.19;4825301;29;20525;-84
2022/06/08 10:11:01;;;;;;;1.95;1.30;;;;;;;22.21;96.55;97719.31;4825019;29;20065;-84
2022/06/08 10:13:42;;;;;;;2.03;1.40;;;;;;;22.34;96.81;97705.09;4793050;29;20071;-83
2022/06/08 10:16:15;;;;;;;2.83;1.40;;;;;;;22.74;95.80;97712.41;4824556;29;20058;-85
2022/06/08 10:18:50;;;;;;;1.95;1.70;;;;;;;23.15;94.67;97712.41;4827645;29;20514;-84
2022/06/08 10:21:20;;;;;;;2.00;1.40;;;;;;;21.79;95.52;97714.13;4827659;29;20450;-83
2022/06/08 10:24:17;;;;;;;1.67;1.50;;;;;;;21.71;97.34;97720.97;4827601;29;20038;-84
2022/06/08 10:26:49;;;;;;;2.05;1.70;;;;;;;22.03;97.27;97721.88;4811687;29;20042;-84
2022/06/08 10:29:42;;;;;;;2.00;1.70;;;;;;;21.49;95.61;97716.31;4796840;29;20442;-84
2022/06/08 10:32:11;;;;;;;;;;;;;;;20.92;95.63;97731.56;4826141;29;20050;-83
2022/06/08 10:34:39;;;;;;;5.03;1.80;;;;;;;21.39;97.23;97720.78;4826637;29;19924;-85
2022/06/08 10:37:18;;;;;;;2.60;1.70;;;;;;;20.24;100.00;97736.38;4796458;29;20050;-84
2022/06/08 10:39:47;;;;;;;4.57;1.63;;;;;;;20.65;100.00;97743.75;4812244;29;20401;-84
2022/06/08 10:42:46;;;;;;;1.50;1.38;;;;;;;20.57;100.00;97739.06;4811726;29;20042;-87
2022/06/08 10:45:21;;;;;;;4.63;1.55;;;;;;;20.85;100.00;97739.16;4796153;29;20042;-84
2022/06/08 10:48:11;;;;;;;2.00;1.38;;;;;;;20.76;100.00;97738.22;4827729;29;20181;-84
2022/06/08 10:50:42;;;;;;;2.17;1.30;;;;;;;20.86;100.00;97756.75;4828184;29;20125;-85
2022/06/08 10:56:23;;;;;;;1.40;1.27;;;;;;;19.96;100.00;97773.56;4827659;29;20050;-84
2022/06/08 10:59:03;;;;;;;1.25;1.05;;;;;;;19.94;100.00;97765.06;4811075;29;20409;-85
2022/06/08 11:02:06;;;;;;;2.25;1.27;;;;;;;19.84;100.00;97769.41;4827126;29;20073;-84
2022/06/08 11:04:32;;;;;;;3.83;1.27;;;;;;;19.93;100.00;97774.91;4810646;29;20073;-83
2022/06/08 11:07:01;;;;;;;6.97;1.48;;;;;;;19.59;100.00;97775.88;4827443;29;20121;-83
2022/06/08 11:09:33;;;;;;;2.95;1.80;;;;;;;19.14;100.00;97781.41;4827017;29;20038;-83
2022/06/08 11:12:30;;;;;;;4.88;1.90;;;;;;;19.83;100.00;97772.38;4810872;29;20386;-84
2022/06/08 11:15:29;;;;;;;2.45;1.80;;;;;;;20.47;100.00;97773.91;4813261;29;20544;-85
2022/06/08 11:18:01;;;;;;;2.75;1.90;;;;;;;20.58;100.00;97775.31;4826997;29;20608;-83
2022/06/08 11:20:43;;;;;;;5.50;2.42;;;;;;;20.73;100.00;97784.91;4792161;29;20031;-85
2022/06/08 11:23:18;;;;;;;4.72;2.30;;;;;;;20.38;100.00;97787.88;4808654;29;20092;-84
2022/06/08 11:25:51;;;;;;;4.57;2.08;;;;;;;20.55;100.00;97789.22;4809060;29;20031;-85
2022/06/08 11:28:42;;;;;;;4.22;2.30;;;;;;;20.97;100.00;97792.81;4827133;29;20031;-84
2022/06/08 11:31:33;;;;;;;3.28;2.05;;;;;;;20.24;100.00;97801.13;4795548;29;20046;-89
2022/06/08 11:34:10;;;;;;;6.45;2.45;;;;;;;20.11;100.00;97805.31;4792527;29;20038;-88
2022/06/08 11:36:54;;;;;;;4.40;2.13;;;;;;;21.21;99.93;97805.19;4828170;29;20034;-89
2022/06/08 11:39:53;;;;;;;4.25;2.45;;;;;;;20.46;99.44;97801.63;4794959;29;20418;-90
2022/06/08 11:42:44;;;;;;;5.05;2.38;;;;;;;20.21;100.00;97798.25;4813823;29;20121;-89
2022/06/08 11:45:37;;;;;;;5.28;2.53;;;;;;;20.69;99.34;97799.91;4809566;29;20485;-86
2022/06/08 11:48:15;;;;;;;4.40;2.58;;;;;;;21.10;97.48;97798.47;4819508;29;20045;-87
2022/06/08 11:50:49;;;;;;;6.97;2.50;;;;;;;20.00;100.00;97803.84;4793295;29;20121;-88
2022/06/08 11:53:16;;;;;;;;;;;;;;;20.41;100.00;97797.16;4805906;29;20063;-86
2022/06/08 11:55:58;;;;;;;3.58;2.45;;;;;;;21.15;98.83;97806.38;4822750;29;19923;-86
2022/06/08 11:58:28;;;;;;;4.82;2.70;;;;;;;20.49;99.45;97795.72;4797320;29;20038;-86
2022/06/08 12:01:01;;;;;;;7.18;3.42;;;;;;;21.43;97.79;97803.75;4822212;29;20041;-85
2022/06/08 12:03:40;;;;;;;4.55;3.70;;;;;;;21.74;97.92;97784.44;4791812;29;20444;-86
2022/06/08 12:06:22;;;;;;;5.30;4.15;;;;;;;21.86;97.48;97791.94;4804909;29;20031;-85
2022/06/08 12:09:14;;;;;;;5.95;3.75;;;;;;;22.31;97.05;97799.25;4806905;29;20103;-85
2022/06/08 12:11:43;;;;;;;5.82;3.38;;;;;;;21.60;94.61;97800.47;4824343;29;20034;-87
2022/06/08 12:14:27;;;;;;;4.22;3.67;;;;;;;21.54;94.72;97799.78;4821495;29;20099;-87